sensor_id;sensor_type;location;lat;lon;timestamp;pressure;altitude;pressure_sealevel;temperature;humidity
45275;BME280;31019;43.780;25.948;2023-02-16T00:00:59;102609.09;;;-3.88;100.00
45275;BME280;31019;43.780;25.948;2023-02-16T00:03:27;102615.34;;;-3.92;100.00
45275;BME280;31019;43.780;25.948;2023-02-16T00:05:54;102613.66;;;-4.13;100.00
45275;BME280;31019;43.780;25.948;2023-02-16T00:08:21;102616.31;;;-3.95;100.00
45275;BME280;31019;43.780;25.948;2023-02-16T00:10:48;102611.91;;;-3.72;100.00
45275;BME280;31019;43.780;25.948;2023-02-16T00:13:29;102609.03;;;-3.66;100.00
45275;BME280;31019;43.780;25.948;2023-02-16T00:16:16;102615.38;;;-3.53;100.00
45275;BME280;31019;43.780;25.948;2023-02-16T00:18:45;102612.91;;;-3.56;100.00
45275;BME280;31019;43.780;25.948;2023-02-16T00:21:12;102610.59;;;-3.43;100.00
45275;BME280;31019;43.780;25.948;2023-02-16T00:23:39;102613.47;;;-3.49;100.00
45275;BME280;31019;43.780;25.948;2023-02-16T00:26:12;102606.25;;;-3.42;100.00
45275;BME280;31019;43.780;25.948;2023-02-16T00:28:41;102614.50;;;-3.33;100.00
45275;BME280;31019;43.780;25.948;2023-02-16T00:31:14;102602.81;;;-3.43;100.00
45275;BME280;31019;43.780;25.948;2023-02-16T00:33:41;102605.38;;;-3.62;100.00
45275;BME280;31019;43.780;25.948;2023-02-16T00:36:09;102613.56;;;-3.71;100.00
45275;BME280;31019;43.780;25.948;2023-02-16T00:38:37;102609.53;;;-3.78;100.00
45275;BME280;31019;43.780;25.948;2023-02-16T00:41:04;102619.75;;;-3.74;100.00
45275;BME280;31019;43.780;25.948;2023-02-16T00:43:51;102612.66;;;-3.70;100.00
45275;BME280;31019;43.780;25.948;2023-02-16T00:46:20;102612.78;;;-3.73;100.00
45275;BME280;31019;43.780;25.948;2023-02-16T00:48:47;102616.41;;;-3.96;100.00
45275;BME280;31019;43.780;25.948;2023-02-16T00:51:15;102620.41;;;-3.89;100.00
45275;BME280;31019;43.780;25.948;2023-02-16T00:53:41;102614.13;;;-3.83;100.00
45275;BME280;31019;43.780;25.948;2023-02-16T00:56:10;102612.63;;;-3.89;100.00
45275;BME280;31019;43.780;25.948;2023-02-16T00:58:38;102618.25;;;-3.79;100.00
45275;BME280;31019;43.780;25.948;2023-02-16T01:01:09;102612.34;;;-3.62;100.00
45275;BME280;31019;43.780;25.948;2023-02-16T01:03:38;102608.41;;;-3.52;100.00
45275;BME280;31019;43.780;25.948;2023-02-16T01:06:05;102606.66;;;-3.52;100.00
45275;BME280;31019;43.780;25.948;2023-02-16T01:08:52;102599.97;;;-3.57;100.00
45275;BME280;31019;43.780;25.948;2023-02-16T01:11:38;102603.50;;;-3.58;100.00
45275;BME280;31019;43.780;25.948;2023-02-16T01:14:05;102601.44;;;-3.52;100.00
45275;BME280;31019;43.780;25.948;2023-02-16T01:16:35;102601.19;;;-3.46;100.00
45275;BME280;31019;43.780;25.948;2023-02-16T01:19:03;102598.84;;;-3.52;100.00
45275;BME280;31019;43.780;25.948;2023-02-16T01:21:30;102605.53;;;-3.46;100.00
45275;BME280;31019;43.780;25.948;2023-02-16T01:23:58;102591.34;;;-3.39;100.00
45275;BME280;31019;43.780;25.948;2023-02-16T01:26:25;102590.38;;;-3.36;100.00
45275;BME280;31019;43.780;25.948;2023-02-16T01:28:52;102591.00;;;-3.31;100.00
45275;BME280;31019;43.780;25.948;2023-02-16T01:31:18;102585.44;;;-3.42;100.00
45275;BME280;31019;43.780;25.948;2023-02-16T01:33:45;102593.94;;;-3.39;100.00
45275;BME280;31019;43.780;25.948;2023-02-16T01:36:20;102589.72;;;-3.60;100.00
45275;BME280;31019;43.780;25.948;2023-02-16T01:38:48;102587.91;;;-3.58;100.00
45275;BME280;31019;43.780;25.948;2023-02-16T01:41:20;102580.38;;;-3.64;100.00
45275;BME280;31019;43.780;25.948;2023-02-16T01:43:56;102576.16;;;-3.48;100.00
45275;BME280;31019;43.780;25.948;2023-02-16T01:46:28;102568.50;;;-3.70;100.00
45275;BME280;31019;43.780;25.948;2023-02-16T01:48:58;102575.53;;;-3.72;100.00
45275;BME280;31019;43.780;25.948;2023-02-16T01:51:27;102569.88;;;-3.82;100.00
45275;BME280;31019;43.780;25.948;2023-02-16T01:54:01;102570.59;;;-3.78;100.00
45275;BME280;31019;43.780;25.948;2023-02-16T01:56:36;102570.91;;;-3.65;100.00
45275;BME280;31019;43.780;25.948;2023-02-16T01:59:12;102562.72;;;-3.56;100.00
45275;BME280;31019;43.780;25.948;2023-02-16T02:01:49;102572.88;;;-3.52;100.00
45275;BME280;31019;43.780;25.948;2023-02-16T02:04:22;102574.63;;;-3.52;100.00
45275;BME280;31019;43.780;25.948;2023-02-16T02:07:15;102570.50;;;-3.56;100.00
45275;BME280;31019;43.780;25.948;2023-02-16T02:09:51;102568.91;;;-3.79;100.00
45275;BME280;31019;43.780;25.948;2023-02-16T02:12:27;102558.63;;;-3.62;100.00
45275;BME280;31019;43.780;25.948;2023-02-16T02:14:58;102565.06;;;-3.71;100.00
45275;BME280;31019;43.780;25.948;2023-02-16T02:17:25;102559.19;;;-3.95;100.00
45275;BME280;31019;43.780;25.948;2023-02-16T02:19:58;102565.31;;;-3.96;100.00
45275;BME280;31019;43.780;25.948;2023-02-16T02:28:56;102558.75;;;-4.04;100.00
45275;BME280;31019;43.780;25.948;2023-02-16T02:31:36;102557.78;;;-4.22;100.00
45275;BME280;31019;43.780;25.948;2023-02-16T02:34:14;102556.16;;;-4.25;100.00
45275;BME280;31019;43.780;25.948;2023-02-16T02:36:48;102562.53;;;-4.32;100.00
45275;BME280;31019;43.780;25.948;2023-02-16T02:39:27;102563.75;;;-4.41;100.00
45275;BME280;31019;43.780;25.948;2023-02-16T02:41:59;102570.63;;;-4.40;100.00
45275;BME280;31019;43.780;25.948;2023-02-16T02:44:36;102555.13;;;-4.62;100.00
45275;BME280;31019;43.780;25.948;2023-02-16T02:47:05;102555.28;;;-4.66;100.00
45275;BME280;31019;43.780;25.948;2023-02-16T02:49:33;102560.31;;;-4.62;100.00
45275;BME280;31019;43.780;25.948;2023-02-16T02:52:00;102554.84;;;-4.55;100.00
45275;BME280;31019;43.780;25.948;2023-02-16T02:54:28;102560.81;;;-4.33;100.00
45275;BME280;31019;43.780;25.948;2023-02-16T02:57:16;102563.50;;;-4.34;100.00
45275;BME280;31019;43.780;25.948;2023-02-16T03:00:06;102569.34;;;-4.50;100.00
45275;BME280;31019;43.780;25.948;2023-02-16T03:02:55;102563.34;;;-3.91;100.00
45275;BME280;31019;43.780;25.948;2023-02-16T03:05:26;102564.41;;;-3.95;100.00
45275;BME280;31019;43.780;25.948;2023-02-16T03:07:59;102555.81;;;-3.97;100.00
45275;BME280;31019;43.780;25.948;2023-02-16T03:10:33;102562.38;;;-3.88;100.00
45275;BME280;31019;43.780;25.948;2023-02-16T03:13:21;102572.34;;;-3.79;100.00
45275;BME280;31019;43.780;25.948;2023-02-16T03:15:51;102563.69;;;-3.98;100.00
45275;BME280;31019;43.780;25.948;2023-02-16T03:18:22;102563.31;;;-4.09;100.00
45275;BME280;31019;43.780;25.948;2023-02-16T03:21:07;102564.53;;;-3.98;100.00
45275;BME280;31019;43.780;25.948;2023-02-16T03:23:54;102566.28;;;-3.98;100.00
45275;BME280;31019;43.780;25.948;2023-02-16T03:26:39;102564.34;;;-4.13;100.00
45275;BME280;31019;43.780;25.948;2023-02-16T03:29:25;102567.47;;;-4.26;100.00
45275;BME280;31019;43.780;25.948;2023-02-16T03:31:54;102568.63;;;-4.33;100.00
45275;BME280;31019;43.780;25.948;2023-02-16T03:34:22;102574.00;;;-4.38;100.00
45275;BME280;31019;43.780;25.948;2023-02-16T03:36:51;102569.06;;;-4.44;100.00
45275;BME280;31019;43.780;25.948;2023-02-16T03:39:19;102572.38;;;-4.40;100.00
45275;BME280;31019;43.780;25.948;2023-02-16T03:41:49;102571.97;;;-4.72;100.00
45275;BME280;31019;43.780;25.948;2023-02-16T03:44:16;102571.38;;;-4.58;100.00
45275;BME280;31019;43.780;25.948;2023-02-16T03:46:44;102570.03;;;-4.46;100.00
45275;BME280;31019;43.780;25.948;2023-02-16T03:49:15;102572.91;;;-4.74;100.00
45275;BME280;31019;43.780;25.948;2023-02-16T03:51:41;102574.47;;;-4.70;100.00
45275;BME280;31019;43.780;25.948;2023-02-16T03:54:08;102572.78;;;-4.71;100.00
45275;BME280;31019;43.780;25.948;2023-02-16T03:56:35;102569.63;;;-4.78;100.00
45275;BME280;31019;43.780;25.948;2023-02-16T03:59:02;102561.00;;;-4.58;100.00
45275;BME280;31019;43.780;25.948;2023-02-16T04:01:29;102563.81;;;-4.42;100.00
45275;BME280;31019;43.780;25.948;2023-02-16T04:03:56;102573.38;;;-4.65;100.00
45275;BME280;31019;43.780;25.948;2023-02-16T04:06:24;102565.06;;;-4.73;100.00
45275;BME280;31019;43.780;25.948;2023-02-16T04:08:50;102568.19;;;-4.65;100.00
45275;BME280;31019;43.780;25.948;2023-02-16T04:11:17;102562.28;;;-4.90;100.00
45275;BME280;31019;43.780;25.948;2023-02-16T04:14:01;102561.38;;;-4.67;100.00
45275;BME280;31019;43.780;25.948;2023-02-16T04:16:28;102557.84;;;-4.87;100.00
45275;BME280;31019;43.780;25.948;2023-02-16T04:18:55;102557.66;;;-4.82;100.00
45275;BME280;31019;43.780;25.948;2023-02-16T04:21:21;102559.81;;;-4.93;100.00
45275;BME280;31019;43.780;25.948;2023-02-16T04:23:49;102558.94;;;-4.92;100.00
45275;BME280;31019;43.780;25.948;2023-02-16T04:26:16;102560.75;;;-5.16;100.00
45275;BME280;31019;43.780;25.948;2023-02-16T04:28:43;102556.97;;;-5.31;100.00
45275;BME280;31019;43.780;25.948;2023-02-16T04:31:10;102557.09;;;-5.34;100.00
45275;BME280;31019;43.780;25.948;2023-02-16T04:33:37;102567.50;;;-5.36;100.00
45275;BME280;31019;43.780;25.948;2023-02-16T04:36:04;102568.41;;;-5.37;100.00
45275;BME280;31019;43.780;25.948;2023-02-16T04:38:31;102559.69;;;-5.34;100.00
45275;BME280;31019;43.780;25.948;2023-02-16T04:40:59;102568.66;;;-5.43;100.00
45275;BME280;31019;43.780;25.948;2023-02-16T04:43:25;102572.69;;;-5.36;100.00
45275;BME280;31019;43.780;25.948;2023-02-16T04:45:52;102566.63;;;-5.13;100.00
45275;BME280;31019;43.780;25.948;2023-02-16T04:48:19;102574.50;;;-5.14;100.00
45275;BME280;31019;43.780;25.948;2023-02-16T04:50:45;102574.94;;;-5.26;100.00
45275;BME280;31019;43.780;25.948;2023-02-16T04:53:12;102574.03;;;-5.25;100.00
45275;BME280;31019;43.780;25.948;2023-02-16T04:55:39;102570.84;;;-5.32;100.00
45275;BME280;31019;43.780;25.948;2023-02-16T04:58:11;102570.78;;;-5.31;100.00
45275;BME280;31019;43.780;25.948;2023-02-16T05:00:38;102574.31;;;-5.33;100.00
45275;BME280;31019;43.780;25.948;2023-02-16T05:03:05;102568.16;;;-5.53;100.00
45275;BME280;31019;43.780;25.948;2023-02-16T05:05:31;102576.25;;;-5.62;100.00
45275;BME280;31019;43.780;25.948;2023-02-16T05:07:59;102577.44;;;-5.70;100.00
45275;BME280;31019;43.780;25.948;2023-02-16T05:10:26;102572.41;;;-5.75;100.00
45275;BME280;31019;43.780;25.948;2023-02-16T05:12:53;102577.03;;;-5.83;100.00
45275;BME280;31019;43.780;25.948;2023-02-16T05:15:38;102576.69;;;-5.74;100.00
45275;BME280;31019;43.780;25.948;2023-02-16T05:18:05;102574.41;;;-5.58;100.00
45275;BME280;31019;43.780;25.948;2023-02-16T05:20:32;102583.84;;;-5.34;100.00
45275;BME280;31019;43.780;25.948;2023-02-16T05:23:16;102574.78;;;-5.22;100.00
45275;BME280;31019;43.780;25.948;2023-02-16T05:25:43;102582.63;;;-5.23;100.00
45275;BME280;31019;43.780;25.948;2023-02-16T05:28:10;102589.22;;;-5.38;100.00
45275;BME280;31019;43.780;25.948;2023-02-16T05:30:38;102594.03;;;-5.29;100.00
45275;BME280;31019;43.780;25.948;2023-02-16T05:33:05;102589.69;;;-5.05;100.00
45275;BME280;31019;43.780;25.948;2023-02-16T05:35:32;102588.09;;;-5.09;100.00
45275;BME280;31019;43.780;25.948;2023-02-16T05:37:59;102586.25;;;-4.84;100.00
45275;BME280;31019;43.780;25.948;2023-02-16T05:40:26;102598.53;;;-4.45;100.00
45275;BME280;31019;43.780;25.948;2023-02-16T05:42:53;102604.06;;;-4.54;100.00
45275;BME280;31019;43.780;25.948;2023-02-16T05:45:20;102603.22;;;-4.32;100.00
45275;BME280;31019;43.780;25.948;2023-02-16T05:47:48;102601.84;;;-4.21;100.00
45275;BME280;31019;43.780;25.948;2023-02-16T05:50:14;102608.47;;;-3.93;100.00
45275;BME280;31019;43.780;25.948;2023-02-16T05:52:41;102604.03;;;-3.91;100.00
45275;BME280;31019;43.780;25.948;2023-02-16T05:55:08;102610.97;;;-3.71;100.00
45275;BME280;31019;43.780;25.948;2023-02-16T05:57:35;102606.63;;;-3.71;100.00
45275;BME280;31019;43.780;25.948;2023-02-16T06:00:03;102608.03;;;-3.63;100.00
45275;BME280;31019;43.780;25.948;2023-02-16T06:02:30;102617.00;;;-3.50;100.00
45275;BME280;31019;43.780;25.948;2023-02-16T06:04:58;102615.78;;;-3.24;100.00
45275;BME280;31019;43.780;25.948;2023-02-16T06:07:24;102618.06;;;-3.16;100.00
45275;BME280;31019;43.780;25.948;2023-02-16T06:09:51;102618.88;;;-2.97;100.00
45275;BME280;31019;43.780;25.948;2023-02-16T06:12:18;102623.34;;;-2.99;100.00
45275;BME280;31019;43.780;25.948;2023-02-16T06:14:45;102624.34;;;-2.65;100.00
45275;BME280;31019;43.780;25.948;2023-02-16T06:17:11;102634.53;;;-2.43;100.00
45275;BME280;31019;43.780;25.948;2023-02-16T06:19:38;102636.50;;;-2.66;100.00
45275;BME280;31019;43.780;25.948;2023-02-16T06:22:07;102630.47;;;-2.49;100.00
45275;BME280;31019;43.780;25.948;2023-02-16T06:24:33;102631.66;;;-2.37;100.00
45275;BME280;31019;43.780;25.948;2023-02-16T06:27:01;102631.47;;;-1.82;100.00
45275;BME280;31019;43.780;25.948;2023-02-16T06:29:28;102628.41;;;-1.73;100.00
45275;BME280;31019;43.780;25.948;2023-02-16T06:31:54;102631.16;;;-1.76;100.00
45275;BME280;31019;43.780;25.948;2023-02-16T06:34:21;102632.38;;;-1.32;100.00
45275;BME280;31019;43.780;25.948;2023-02-16T06:36:48;102631.78;;;-1.22;100.00
45275;BME280;31019;43.780;25.948;2023-02-16T06:39:16;102635.34;;;-1.23;100.00
45275;BME280;31019;43.780;25.948;2023-02-16T06:41:43;102629.53;;;-0.64;100.00
45275;BME280;31019;43.780;25.948;2023-02-16T06:44:12;102624.78;;;-0.58;100.00
45275;BME280;31019;43.780;25.948;2023-02-16T06:46:39;102632.09;;;-0.33;100.00
45275;BME280;31019;43.780;25.948;2023-02-16T06:49:06;102631.97;;;-0.01;100.00
45275;BME280;31019;43.780;25.948;2023-02-16T06:51:33;102622.34;;;-0.45;100.00
45275;BME280;31019;43.780;25.948;2023-02-16T06:54:00;102631.75;;;-0.12;100.00
45275;BME280;31019;43.780;25.948;2023-02-16T06:56:28;102622.28;;;0.01;100.00
45275;BME280;31019;43.780;25.948;2023-02-16T06:58:55;102621.47;;;0.29;100.00
45275;BME280;31019;43.780;25.948;2023-02-16T07:01:21;102629.22;;;0.59;100.00
45275;BME280;31019;43.780;25.948;2023-02-16T07:03:50;102628.09;;;0.63;100.00
45275;BME280;31019;43.780;25.948;2023-02-16T07:06:18;102625.97;;;1.11;100.00
45275;BME280;31019;43.780;25.948;2023-02-16T07:08:45;102628.28;;;1.30;100.00
45275;BME280;31019;43.780;25.948;2023-02-16T07:11:12;102626.09;;;1.10;100.00
45275;BME280;31019;43.780;25.948;2023-02-16T07:13:40;102624.72;;;1.71;100.00
45275;BME280;31019;43.780;25.948;2023-02-16T07:16:07;102617.53;;;2.26;100.00
45275;BME280;31019;43.780;25.948;2023-02-16T07:18:34;102618.34;;;2.65;100.00
45275;BME280;31019;43.780;25.948;2023-02-16T07:21:01;102618.25;;;2.53;100.00
45275;BME280;31019;43.780;25.948;2023-02-16T07:23:28;102615.69;;;2.78;100.00
45275;BME280;31019;43.780;25.948;2023-02-16T07:25:55;102616.47;;;3.04;100.00
45275;BME280;31019;43.780;25.948;2023-02-16T07:28:22;102618.38;;;2.14;100.00
45275;BME280;31019;43.780;25.948;2023-02-16T07:30:50;102621.91;;;3.61;100.00
45275;BME280;31019;43.780;25.948;2023-02-16T07:33:17;102610.41;;;3.51;100.00
45275;BME280;31019;43.780;25.948;2023-02-16T07:35:44;102612.06;;;3.99;100.00
45275;BME280;31019;43.780;25.948;2023-02-16T07:38:11;102608.91;;;4.18;100.00
45275;BME280;31019;43.780;25.948;2023-02-16T07:40:38;102607.56;;;4.12;100.00
45275;BME280;31019;43.780;25.948;2023-02-16T07:43:05;102606.16;;;4.64;100.00
45275;BME280;31019;43.780;25.948;2023-02-16T07:45:32;102603.00;;;4.14;100.00
45275;BME280;31019;43.780;25.948;2023-02-16T07:48:02;102599.81;;;4.44;100.00
45275;BME280;31019;43.780;25.948;2023-02-16T07:50:28;102600.78;;;5.53;100.00
45275;BME280;31019;43.780;25.948;2023-02-16T07:52:55;102601.75;;;5.72;100.00
45275;BME280;31019;43.780;25.948;2023-02-16T07:55:22;102593.13;;;5.70;100.00
45275;BME280;31019;43.780;25.948;2023-02-16T07:57:49;102593.72;;;6.16;100.00
45275;BME280;31019;43.780;25.948;2023-02-16T08:00:20;102587.09;;;5.80;100.00
45275;BME280;31019;43.780;25.948;2023-02-16T08:02:47;102590.28;;;6.25;100.00
45275;BME280;31019;43.780;25.948;2023-02-16T08:05:15;102587.91;;;6.22;100.00
45275;BME280;31019;43.780;25.948;2023-02-16T08:07:42;102590.94;;;6.38;100.00
45275;BME280;31019;43.780;25.948;2023-02-16T08:10:09;102589.22;;;6.37;100.00
45275;BME280;31019;43.780;25.948;2023-02-16T08:12:37;102582.91;;;7.09;100.00
45275;BME280;31019;43.780;25.948;2023-02-16T08:15:04;102581.72;;;6.02;100.00
45275;BME280;31019;43.780;25.948;2023-02-16T08:17:31;102585.66;;;7.76;100.00
45275;BME280;31019;43.780;25.948;2023-02-16T08:19:57;102586.03;;;8.00;100.00
45275;BME280;31019;43.780;25.948;2023-02-16T08:22:26;102592.34;;;7.80;100.00
45275;BME280;31019;43.780;25.948;2023-02-16T08:24:53;102585.03;;;8.11;100.00
45275;BME280;31019;43.780;25.948;2023-02-16T08:27:20;102587.06;;;8.64;100.00
45275;BME280;31019;43.780;25.948;2023-02-16T08:29:46;102576.97;;;8.78;100.00
45275;BME280;31019;43.780;25.948;2023-02-16T08:32:13;102576.63;;;9.70;100.00
45275;BME280;31019;43.780;25.948;2023-02-16T08:34:40;102573.78;;;8.92;100.00
45275;BME280;31019;43.780;25.948;2023-02-16T08:37:11;102572.28;;;9.07;100.00
45275;BME280;31019;43.780;25.948;2023-02-16T08:39:39;102568.88;;;9.33;100.00
45275;BME280;31019;43.780;25.948;2023-02-16T08:42:08;102567.25;;;8.86;100.00
45275;BME280;31019;43.780;25.948;2023-02-16T08:44:35;102572.88;;;9.55;100.00
45275;BME280;31019;43.780;25.948;2023-02-16T08:47:02;102566.63;;;10.08;100.00
45275;BME280;31019;43.780;25.948;2023-02-16T08:49:29;102571.66;;;9.49;100.00
45275;BME280;31019;43.780;25.948;2023-02-16T08:51:57;102567.25;;;10.02;100.00
45275;BME280;31019;43.780;25.948;2023-02-16T08:54:27;102565.47;;;9.40;100.00
45275;BME280;31019;43.780;25.948;2023-02-16T08:56:57;102562.34;;;11.24;100.00
45275;BME280;31019;43.780;25.948;2023-02-16T08:59:24;102567.16;;;8.60;100.00
45275;BME280;31019;43.780;25.948;2023-02-16T09:01:52;102568.56;;;9.80;100.00
45275;BME280;31019;43.780;25.948;2023-02-16T09:04:19;102562.03;;;11.36;100.00
45275;BME280;31019;43.780;25.948;2023-02-16T09:06:46;102568.50;;;11.25;100.00
45275;BME280;31019;43.780;25.948;2023-02-16T09:09:14;102569.97;;;11.93;100.00
45275;BME280;31019;43.780;25.948;2023-02-16T09:11:41;102569.41;;;9.01;100.00
45275;BME280;31019;43.780;25.948;2023-02-16T09:14:09;102570.66;;;11.54;100.00
45275;BME280;31019;43.780;25.948;2023-02-16T09:16:36;102570.69;;;12.74;100.00
45275;BME280;31019;43.780;25.948;2023-02-16T09:19:10;102571.53;;;12.66;100.00
45275;BME280;31019;43.780;25.948;2023-02-16T09:21:38;102567.72;;;10.74;100.00
45275;BME280;31019;43.780;25.948;2023-02-16T09:24:06;102571.50;;;11.38;100.00
45275;BME280;31019;43.780;25.948;2023-02-16T09:26:35;102577.56;;;8.71;100.00
45275;BME280;31019;43.780;25.948;2023-02-16T09:29:02;102563.78;;;8.86;100.00
45275;BME280;31019;43.780;25.948;2023-02-16T09:31:33;102570.25;;;10.07;100.00
45275;BME280;31019;43.780;25.948;2023-02-16T09:34:02;102570.16;;;9.91;100.00
45275;BME280;31019;43.780;25.948;2023-02-16T09:36:29;102568.13;;;8.22;100.00
45275;BME280;31019;43.780;25.948;2023-02-16T09:38:56;102567.72;;;8.82;100.00
45275;BME280;31019;43.780;25.948;2023-02-16T09:41:31;102562.16;;;8.57;100.00
45275;BME280;31019;43.780;25.948;2023-02-16T09:44:07;102550.34;;;9.59;100.00
45275;BME280;31019;43.780;25.948;2023-02-16T09:46:40;102559.47;;;10.93;100.00
45275;BME280;31019;43.780;25.948;2023-02-16T09:49:19;102552.00;;;11.79;100.00
45275;BME280;31019;43.780;25.948;2023-02-16T09:51:56;102546.59;;;12.90;100.00
45275;BME280;31019;43.780;25.948;2023-02-16T09:54:32;102553.09;;;10.70;100.00
45275;BME280;31019;43.780;25.948;2023-02-16T09:57:04;102543.44;;;12.16;100.00
45275;BME280;31019;43.780;25.948;2023-02-16T09:59:40;102549.34;;;11.70;100.00
45275;BME280;31019;43.780;25.948;2023-02-16T10:02:26;102550.13;;;12.51;100.00
45275;BME280;31019;43.780;25.948;2023-02-16T10:05:08;102541.56;;;11.20;97.05
45275;BME280;31019;43.780;25.948;2023-02-16T10:07:40;102536.13;;;13.03;100.00
45275;BME280;31019;43.780;25.948;2023-02-16T10:10:12;102525.69;;;13.78;83.23
45275;BME280;31019;43.780;25.948;2023-02-16T10:12:46;102529.09;;;13.86;79.14
45275;BME280;31019;43.780;25.948;2023-02-16T10:15:18;102532.97;;;9.64;100.00
45275;BME280;31019;43.780;25.948;2023-02-16T10:17:50;102525.09;;;10.84;100.00
45275;BME280;31019;43.780;25.948;2023-02-16T10:20:22;102521.59;;;11.40;100.00
45275;BME280;31019;43.780;25.948;2023-02-16T10:22:54;102521.22;;;13.17;100.00
45275;BME280;31019;43.780;25.948;2023-02-16T10:25:27;102521.28;;;12.86;92.41
45275;BME280;31019;43.780;25.948;2023-02-16T10:28:04;102503.00;;;11.08;100.00
45275;BME280;31019;43.780;25.948;2023-02-16T10:30:39;102505.66;;;11.24;95.27
45275;BME280;31019;43.780;25.948;2023-02-16T10:33:15;102508.03;;;12.47;89.14
45275;BME280;31019;43.780;25.948;2023-02-16T10:35:48;102502.50;;;11.12;98.02
45275;BME280;31019;43.780;25.948;2023-02-16T10:38:21;102504.16;;;10.97;100.00
45275;BME280;31019;43.780;25.948;2023-02-16T10:40:55;102493.28;;;12.82;100.00
45275;BME280;31019;43.780;25.948;2023-02-16T10:43:36;102497.69;;;12.12;89.98
45275;BME280;31019;43.780;25.948;2023-02-16T10:46:05;102494.75;;;13.68;98.90
45275;BME280;31019;43.780;25.948;2023-02-16T10:48:33;102486.38;;;14.52;73.23
45275;BME280;31019;43.780;25.948;2023-02-16T10:51:01;102493.03;;;14.41;75.40
45275;BME280;31019;43.780;25.948;2023-02-16T10:53:35;102478.06;;;12.68;88.04
45275;BME280;31019;43.780;25.948;2023-02-16T10:56:31;102474.28;;;12.85;78.27
45275;BME280;31019;43.780;25.948;2023-02-16T10:59:05;102473.75;;;10.99;83.37
45275;BME280;31019;43.780;25.948;2023-02-16T11:01:36;102461.25;;;10.59;100.00
45275;BME280;31019;43.780;25.948;2023-02-16T11:04:05;102457.28;;;12.86;94.35
45275;BME280;31019;43.780;25.948;2023-02-16T11:06:32;102455.44;;;13.77;89.38
45275;BME280;31019;43.780;25.948;2023-02-16T11:09:02;102467.66;;;13.57;78.71
45275;BME280;31019;43.780;25.948;2023-02-16T11:11:35;102449.59;;;14.39;81.71
45275;BME280;31019;43.780;25.948;2023-02-16T11:14:04;102448.06;;;16.20;66.11
45275;BME280;31019;43.780;25.948;2023-02-16T11:16:32;102438.41;;;16.33;60.44
45275;BME280;31019;43.780;25.948;2023-02-16T11:19:02;102447.50;;;12.24;81.67
45275;BME280;31019;43.780;25.948;2023-02-16T11:21:47;102438.75;;;13.07;73.09
45275;BME280;31019;43.780;25.948;2023-02-16T11:24:24;102432.38;;;12.71;75.33
45275;BME280;31019;43.780;25.948;2023-02-16T11:27:03;102424.00;;;13.94;73.58
45275;BME280;31019;43.780;25.948;2023-02-16T11:29:30;102416.94;;;13.42;77.49
45275;BME280;31019;43.780;25.948;2023-02-16T11:31:58;102424.28;;;13.25;64.83
45275;BME280;31019;43.780;25.948;2023-02-16T11:34:31;102411.03;;;11.94;90.66
45275;BME280;31019;43.780;25.948;2023-02-16T11:37:05;102412.94;;;13.23;68.15
45275;BME280;31019;43.780;25.948;2023-02-16T11:39:36;102407.59;;;12.16;84.68
45275;BME280;31019;43.780;25.948;2023-02-16T11:42:06;102398.91;;;11.35;97.58
45275;BME280;31019;43.780;25.948;2023-02-16T11:44:35;102391.06;;;13.57;88.18
45275;BME280;31019;43.780;25.948;2023-02-16T11:47:09;102390.19;;;15.08;68.39
45275;BME280;31019;43.780;25.948;2023-02-16T11:49:46;102386.38;;;12.54;79.24
45275;BME280;31019;43.780;25.948;2023-02-16T11:52:25;102374.19;;;13.86;72.86
45275;BME280;31019;43.780;25.948;2023-02-16T11:54:58;102370.78;;;15.76;64.00
45275;BME280;31019;43.780;25.948;2023-02-16T11:57:27;102372.59;;;16.37;58.35
45275;BME280;31019;43.780;25.948;2023-02-16T11:59:56;102370.25;;;16.00;54.38
45275;BME280;31019;43.780;25.948;2023-02-16T12:02:34;102370.38;;;12.92;66.20
45275;BME280;31019;43.780;25.948;2023-02-16T12:05:23;102362.75;;;15.00;66.79
45275;BME280;31019;43.780;25.948;2023-02-16T12:08:02;102353.94;;;15.41;59.66
45275;BME280;31019;43.780;25.948;2023-02-16T12:10:37;102354.91;;;13.40;72.21
45275;BME280;31019;43.780;25.948;2023-02-16T12:13:14;102343.50;;;15.18;61.62
45275;BME280;31019;43.780;25.948;2023-02-16T12:15:45;102351.78;;;16.32;56.20
45275;BME280;31019;43.780;25.948;2023-02-16T12:18:23;102344.91;;;14.57;60.86
45275;BME280;31019;43.780;25.948;2023-02-16T12:20:56;102340.78;;;17.27;53.65
45275;BME280;31019;43.780;25.948;2023-02-16T12:23:40;102334.25;;;16.30;54.27
45275;BME280;31019;43.780;25.948;2023-02-16T12:26:18;102326.59;;;16.20;54.56
45275;BME280;31019;43.780;25.948;2023-02-16T12:28:59;102331.75;;;15.53;56.18
45275;BME280;31019;43.780;25.948;2023-02-16T12:31:33;102331.47;;;15.42;59.51
45275;BME280;31019;43.780;25.948;2023-02-16T12:34:15;102331.34;;;13.43;59.26
45275;BME280;31019;43.780;25.948;2023-02-16T12:36:50;102319.00;;;13.93;63.09
45275;BME280;31019;43.780;25.948;2023-02-16T12:39:24;102313.88;;;14.35;57.04
45275;BME280;31019;43.780;25.948;2023-02-16T12:42:08;102318.09;;;13.35;63.28
45275;BME280;31019;43.780;25.948;2023-02-16T12:44:43;102305.59;;;12.30;70.57
45275;BME280;31019;43.780;25.948;2023-02-16T12:47:16;102300.81;;;11.72;70.10
45275;BME280;31019;43.780;25.948;2023-02-16T12:49:50;102297.22;;;13.39;63.00
45275;BME280;31019;43.780;25.948;2023-02-16T12:52:26;102291.34;;;14.23;62.40
45275;BME280;31019;43.780;25.948;2023-02-16T12:55:04;102297.34;;;12.63;66.13
45275;BME280;31019;43.780;25.948;2023-02-16T12:57:33;102289.41;;;14.59;65.50